Time;durP1;ratioP1;P1;durP2;ratioP2;P2;SDS_P1;SDS_P2;PMS_P1;PMS_P2;Temp;Humidity;BMP_temperature;BMP_pressure;BME280_temperature;BME280_humidity;BME280_pressure;Samples;Min_cycle;Max_cycle;Signal;HPM_P1;HPM_P2
2021/06/26 00:02:12;;;;;;;;;;;;;;;24.67;59.58;101164.19;5047390;28;1276;-68
2021/06/26 00:04:57;;;;;;;;;;;;;;;24.65;60.59;101166.16;5047165;28;1142;-68
2021/06/26 00:07:43;;;;;;;;;;;;;;;24.64;59.97;101165.28;5048403;28;1272;-68
2021/06/26 00:10:28;;;;;;;;;;;;;;;24.63;59.95;101158.25;5048108;28;1110;-69
2021/06/26 00:13:14;;;;;;;;;;;;;;;24.65;59.37;101166.16;5048230;28;1902;-68
2021/06/26 00:16:00;;;;;;;;;;;;;;;24.64;60.22;101167.94;5048002;28;714;-68
2021/06/26 00:18:45;;;;;;;;;;;;;;;24.61;60.81;101164.66;5048049;28;1456;-68
2021/06/26 00:21:30;;;;;;;;;;;;;;;24.62;60.25;101166.38;5047869;28;1299;-68
2021/06/26 00:24:16;;;;;;;;;;;;;;;24.62;60.49;101166.38;5051064;28;639;-68
2021/06/26 00:27:01;;;;;;;;;;;;;;;24.60;60.88;101173.59;5054636;28;1287;-68
2021/06/26 00:29:46;;;;;;;;;;;;;;;24.61;59.00;101164.66;5054578;28;652;-68
2021/06/26 00:32:31;;;;;;;;;;;;;;;24.60;59.77;101163.81;5054682;28;1914;-68
2021/06/26 00:35:17;;;;;;;;;;;;;;;24.60;60.73;101162.97;5054574;28;699;-68
2021/06/26 00:38:03;;;;;;;;;;;;;;;24.60;59.47;101158.47;5054673;28;1278;-68
2021/06/26 00:40:48;;;;;;;;;;;;;;;24.61;60.94;101154.00;5054436;28;659;-68
2021/06/26 00:43:34;;;;;;;;;;;;;;;24.60;60.15;101152.31;5054600;28;1278;-68
2021/06/26 00:46:19;;;;;;;;;;;;;;;24.58;59.86;101152.44;5054222;28;1252;-68
2021/06/26 00:49:04;;;;;;;;;;;;;;;24.57;61.27;101152.53;5053896;28;707;-67
2021/06/26 00:51:50;;;;;;;;;;;;;;;24.55;61.30;101149.16;5054389;28;1244;-67
2021/06/26 00:54:35;;;;;;;;;;;;;;;24.58;59.64;101138.25;5054603;28;707;-67
2021/06/26 00:57:23;;;;;;;;;;;;;;;24.56;60.44;101150.84;5054615;28;1201;-67
2021/06/26 01:00:08;;;;;;;;;;;;;;;24.57;60.35;101144.53;5054603;28;624;-67
2021/06/26 01:02:53;;;;;;;;;;;;;;;24.54;60.89;101145.63;5054693;28;1258;-67
2021/06/26 01:05:39;;;;;;;;;;;;;;;24.55;60.98;101135.81;5054265;28;671;-67
2021/06/26 01:08:26;;;;;;;;;;;;;;;24.55;61.28;101138.50;5053126;28;1485;-67
2021/06/26 01:11:11;;;;;;;;;;;;;;;24.55;60.80;101141.16;5054435;28;715;-67
2021/06/26 01:13:57;;;;;;;;;;;;;;;24.50;60.86;101135.34;5053972;28;2005;-68
2021/06/26 01:16:42;;;;;;;;;;;;;;;24.51;60.36;101135.19;5053811;28;1276;-68
2021/06/26 01:19:27;;;;;;;;;;;;;;;24.51;59.44;101137.88;5051417;28;1523;-68
2021/06/26 01:22:19;;;;;;;;;;;;;;;24.52;58.60;101131.59;5054024;28;1248;-68
2021/06/26 01:25:04;;;;;;;;;;;;;;;24.48;60.66;101125.63;5036562;28;686;-67
2021/06/26 01:27:51;;;;;;;;;;;;;;;24.50;61.30;101124.69;5034253;28;1236;-68
2021/06/26 01:30:37;;;;;;;;;;;;;;;24.45;59.79;101127.69;5034121;28;636;-69
2021/06/26 01:33:23;;;;;;;;;;;;;;;24.45;60.54;101128.53;5034367;28;1910;-68
2021/06/26 01:36:08;;;;;;;;;;;;;;;24.47;60.37;101120.41;5031792;28;581;-68
2021/06/26 01:38:57;;;;;;;;;;;;;;;24.47;60.05;101121.25;5030967;28;714;-68
2021/06/26 01:41:43;;;;;;;;;;;;;;;24.40;61.30;101120.03;5030876;28;1232;-68
2021/06/26 01:44:28;;;;;;;;;;;;;;;24.42;61.22;101117.25;5031081;28;702;-68
2021/06/26 01:47:13;;;;;;;;;;;;;;;24.42;60.44;101112.78;5030778;28;1228;-68
2021/06/26 01:49:59;;;;;;;;;;;;;;;24.41;60.96;101110.22;5030627;28;636;-68
2021/06/26 01:52:45;;;;;;;;;;;;;;;24.40;61.50;101106.75;5030698;28;1930;-68
2021/06/26 01:55:30;;;;;;;;;;;;;;;24.45;61.11;101101.03;5030804;28;695;-68
2021/06/26 01:58:15;;;;;;;;;;;;;;;24.44;61.31;101100.19;5030755;28;1277;-68
2021/06/26 02:01:01;;;;;;;;;;;;;;;24.42;61.47;101094.16;5046713;28;688;-68
2021/06/26 02:03:46;;;;;;;;;;;;;;;24.42;61.70;101095.94;5050610;28;722;-68
2021/06/26 02:06:32;;;;;;;;;;;;;;;24.43;59.98;101087.88;5050060;28;1318;-68
2021/06/26 02:09:17;;;;;;;;;;;;;;;24.40;61.44;101085.44;5050143;28;628;-68
2021/06/26 02:12:03;;;;;;;;;;;;;;;24.38;61.63;101083.81;5050180;28;1306;-68
2021/06/26 02:14:48;;;;;;;;;;;;;;;24.39;59.77;101086.38;5050447;28;691;-69
2021/06/26 02:17:33;;;;;;;;;;;;;;;24.37;59.83;101088.31;5049846;28;1458;-68
2021/06/26 02:20:19;;;;;;;;;;;;;;;24.37;60.59;101084.81;5049714;28;668;-68
2021/06/26 02:23:04;;;;;;;;;;;;;;;24.37;60.09;101088.31;5050180;28;1371;-68
2021/06/26 02:25:50;;;;;;;;;;;;;;;24.38;60.48;101079.34;5050407;28;624;-67
2021/06/26 02:28:35;;;;;;;;;;;;;;;24.33;62.02;101086.84;5062939;28;1319;-67
2021/06/26 02:31:20;;;;;;;;;;;;;;;24.36;60.91;101077.78;5049867;28;1330;-68
2021/06/26 02:34:05;;;;;;;;;;;;;;;24.34;61.77;101069.91;5049588;28;1975;-67
2021/06/26 02:36:50;;;;;;;;;;;;;;;24.31;62.37;101077.28;5049513;28;1342;-67
2021/06/26 02:39:36;;;;;;;;;;;;;;;24.33;61.15;101075.34;5049733;28;672;-67
2021/06/26 02:42:21;;;;;;;;;;;;;;;24.37;59.85;101074.16;5062079;28;1262;-67
2021/06/26 02:45:07;;;;;;;;;;;;;;;24.33;59.97;101060.22;5049895;28;655;-67
2021/06/26 02:47:52;;;;;;;;;;;;;;;24.30;60.60;101065.78;5048273;28;1287;-67
2021/06/26 02:50:38;;;;;;;;;;;;;;;24.34;61.21;101067.25;5049454;28;644;-68
2021/06/26 02:53:23;;;;;;;;;;;;;;;24.27;61.63;101060.69;5049526;28;1977;-68
2021/06/26 02:56:08;;;;;;;;;;;;;;;24.28;61.83;101066.88;5049273;28;607;-68
2021/06/26 02:58:53;;;;;;;;;;;;;;;24.29;60.51;101065.88;5049213;28;583;-68
2021/06/26 03:01:39;;;;;;;;;;;;;;;24.29;61.70;101065.88;5048975;28;1292;-67
2021/06/26 03:04:24;;;;;;;;;;;;;;;24.29;59.17;101056.09;5049494;28;663;-67
2021/06/26 03:07:09;;;;;;;;;;;;;;;24.24;61.74;101063.59;5049187;28;1260;-67
2021/06/26 03:09:54;;;;;;;;;;;;;;;24.25;60.77;101069.75;5049129;28;640;-67
2021/06/26 03:12:39;;;;;;;;;;;;;;;24.24;61.25;101071.56;5061754;28;1989;-67
2021/06/26 03:15:25;;;;;;;;;;;;;;;24.20;61.33;101069.22;5048976;28;1150;-67
2021/06/26 03:18:11;;;;;;;;;;;;;;;24.18;61.18;101064.03;5048623;28;1626;-67
2021/06/26 03:20:56;;;;;;;;;;;;;;;24.21;59.71;101066.47;5048888;28;632;-67
2021/06/26 03:23:41;;;;;;;;;;;;;;;24.16;60.86;101065.97;5047638;28;1144;-67
2021/06/26 03:26:26;;;;;;;;;;;;;;;24.08;61.02;101064.78;5048536;28;1258;-67
2021/06/26 03:29:12;;;;;;;;;;;;;;;24.09;60.51;101067.34;5048618;28;714;-67
2021/06/26 03:31:57;;;;;;;;;;;;;;;24.09;60.73;101066.50;5046646;28;1343;-67
2021/06/26 03:34:43;;;;;;;;;;;;;;;24.09;59.81;101064.69;5048464;28;1898;-67
2021/06/26 03:37:28;;;;;;;;;;;;;;;24.07;61.20;101056.00;5048562;28;1359;-67
2021/06/26 03:40:13;;;;;;;;;;;;;;;24.05;60.43;101054.38;5048466;28;730;-68
2021/06/26 03:42:59;;;;;;;;;;;;;;;24.06;60.44;101056.94;5048542;28;1347;-66
2021/06/26 03:45:44;;;;;;;;;;;;;;;24.02;60.95;101055.47;5048386;28;691;-67
2021/06/26 03:48:30;;;;;;;;;;;;;;;24.02;61.47;101060.78;5048548;28;1307;-67
2021/06/26 03:51:15;;;;;;;;;;;;;;;24.03;61.33;101054.50;5048447;28;678;-67
2021/06/26 03:54:00;;;;;;;;;;;;;;;23.99;61.34;101066.31;5048099;28;1902;-66
2021/06/26 03:56:46;;;;;;;;;;;;;;;23.99;61.37;101058.34;5046857;28;1287;-66
2021/06/26 03:59:31;;;;;;;;;;;;;;;23.99;61.39;101055.69;5047678;28;718;-67
2021/06/26 04:02:16;;;;;;;;;;;;;;;24.03;61.15;101058.97;5047058;28;1241;-67
2021/06/26 04:05:02;;;;;;;;;;;;;;;24.01;60.94;101056.44;5047968;28;668;-67
2021/06/26 04:07:47;;;;;;;;;;;;;;;23.99;61.22;101054.84;5048251;28;1272;-67
2021/06/26 04:10:32;;;;;;;;;;;;;;;24.00;60.93;101057.41;5048424;28;558;-67
2021/06/26 04:13:18;;;;;;;;;;;;;;;24.00;60.93;101057.41;5046885;28;1902;-67
2021/06/26 04:16:04;;;;;;;;;;;;;;;24.00;61.39;101052.06;5046735;28;691;-68
2021/06/26 04:18:49;;;;;;;;;;;;;;;24.02;61.00;101054.59;5047959;28;1466;-67
2021/06/26 04:21:34;;;;;;;;;;;;;;;24.00;61.19;101057.41;5047905;28;1264;-67
2021/06/26 04:24:20;;;;;;;;;;;;;;;24.00;60.94;101051.22;5048348;28;653;-67
2021/06/26 04:27:05;;;;;;;;;;;;;;;24.03;60.84;101053.66;5047632;28;1349;-67
2021/06/26 04:29:51;;;;;;;;;;;;;;;24.03;58.81;101046.53;5047973;28;656;-67
2021/06/26 04:32:37;;;;;;;;;;;;;;;24.01;61.47;101047.59;5048212;28;1272;-67
2021/06/26 04:35:25;;;;;;;;;;;;;;;23.99;61.20;101050.38;5048173;28;1077;-67
2021/06/26 04:38:10;;;;;;;;;;;;;;;23.99;60.23;101047.69;5048251;28;1346;-67
2021/06/26 04:40:55;;;;;;;;;;;;;;;24.02;60.73;101044.81;5048160;28;639;-68
2021/06/26 04:43:40;;;;;;;;;;;;;;;24.02;61.22;101050.13;5046305;28;1424;-68
2021/06/26 04:46:26;;;;;;;;;;;;;;;24.03;59.88;101046.53;5046442;28;1381;-67
2021/06/26 04:49:11;;;;;;;;;;;;;;;23.98;61.40;101043.38;5047536;28;663;-67
2021/06/26 04:51:56;;;;;;;;;;;;;;;23.99;61.80;101053.03;5047582;28;1288;-67
2021/06/26 04:54:42;;;;;;;;;;;;;;;24.04;61.42;101050.88;5047530;28;1914;-68
2021/06/26 04:57:28;;;;;;;;;;;;;;;24.00;60.34;101051.22;5046413;28;1436;-67
2021/06/26 05:00:14;;;;;;;;;;;;;;;23.96;61.84;101042.59;5047664;28;675;-67
2021/06/26 05:02:59;;;;;;;;;;;;;;;24.00;61.26;101059.19;5047667;28;1354;-68
2021/06/26 05:05:44;;;;;;;;;;;;;;;23.99;62.09;101069.00;5047657;28;639;-68
2021/06/26 05:08:29;;;;;;;;;;;;;;;23.97;62.11;101062.94;5039080;28;1293;-67
2021/06/26 05:11:15;;;;;;;;;;;;;;;23.99;61.85;101057.50;5029575;28;635;-68
2021/06/26 05:14:00;;;;;;;;;;;;;;;24.01;60.94;101056.44;5031432;28;1906;-68
2021/06/26 05:16:45;;;;;;;;;;;;;;;24.00;62.24;101068.03;5031248;28;1462;-67
2021/06/26 05:19:31;;;;;;;;;;;;;;;23.98;61.67;101056.66;5043344;28;600;-67
2021/06/26 05:22:16;;;;;;;;;;;;;;;24.03;61.91;101061.63;5031270;28;1355;-69
2021/06/26 05:25:01;;;;;;;;;;;;;;;24.00;62.00;101061.88;5031224;28;695;-68
2021/06/26 05:27:47;;;;;;;;;;;;;;;23.99;61.76;101055.69;5031385;28;1294;-68
2021/06/26 05:30:32;;;;;;;;;;;;;;;24.01;60.31;101064.44;5031242;28;707;-68
2021/06/26 05:33:19;;;;;;;;;;;;;;;24.00;61.42;101068.03;5031362;28;1914;-67
2021/06/26 05:36:04;;;;;;;;;;;;;;;24.01;61.92;101063.56;5030920;28;639;-68
2021/06/26 05:38:50;;;;;;;;;;;;;;;24.00;61.98;101073.34;5058208;28;642;-67
2021/06/26 05:41:36;;;;;;;;;;;;;;;24.02;61.87;101071.44;5030733;28;1332;-67
2021/06/26 05:44:21;;;;;;;;;;;;;;;24.02;61.39;101066.09;5030858;28;632;-67
2021/06/26 05:47:06;;;;;;;;;;;;;;;24.01;61.81;101067.09;5030912;28;1308;-66
2021/06/26 05:49:53;;;;;;;;;;;;;;;24.04;61.53;101069.53;5030994;28;707;-67
2021/06/26 05:52:49;;;;;;;;;;;;;;;24.06;61.73;101066.72;5031176;28;1245;-67
2021/06/26 05:55:34;;;;;;;;;;;;;;;23.98;62.10;101067.31;5031332;28;704;-67
2021/06/26 05:58:24;;;;;;;;;;;;;;;24.04;61.32;101066.84;5031347;28;1379;-66
2021/06/26 06:01:11;;;;;;;;;;;;;;;24.09;60.97;101071.81;5030765;28;690;-67
2021/06/26 06:04:01;;;;;;;;;;;;;;;24.06;61.32;101074.72;5042752;28;682;-66
2021/06/26 06:06:46;;;;;;;;;;;;;;;24.06;61.68;101072.06;5030364;28;1374;-67
2021/06/26 06:09:31;;;;;;;;;;;;;;;24.05;61.71;101068.53;5030883;28;648;-67
2021/06/26 06:12:17;;;;;;;;;;;;;;;24.04;60.43;101058.03;5032894;28;1276;-66
2021/06/26 06:15:03;;;;;;;;;;;;;;;24.04;60.34;101058.03;5050045;28;1910;-65
2021/06/26 06:17:48;;;;;;;;;;;;;;;24.09;61.03;101062.03;5048784;28;1651;-65
2021/06/26 06:20:33;;;;;;;;;;;;;;;24.13;60.81;101057.38;5049304;28;1276;-68
2021/06/26 06:23:19;;;;;;;;;;;;;;;24.10;61.13;101053.09;5047054;28;1322;-65
2021/06/26 06:26:04;;;;;;;;;;;;;;;24.07;61.39;101056.00;5048143;28;1210;-64
2021/06/26 06:28:50;;;;;;;;;;;;;;;24.14;61.25;101053.72;5048650;28;1281;-63
2021/06/26 06:31:35;;;;;;;;;;;;;;;24.16;61.29;101063.31;5046457;28;1419;-62
2021/06/26 06:34:21;;;;;;;;;;;;;;;24.19;61.03;101057.75;5047196;28;1961;-63
2021/06/26 06:37:06;;;;;;;;;;;;;;;24.23;60.92;101056.53;5048199;28;1332;-63
2021/06/26 06:39:51;;;;;;;;;;;;;;;24.24;60.97;101054.75;5045569;28;1064;-63
2021/06/26 06:42:37;;;;;;;;;;;;;;;24.26;60.81;101058.97;5046436;28;1417;-62
2021/06/26 06:45:23;;;;;;;;;;;;;;;24.28;60.47;101057.06;5047194;28;1047;-64
2021/06/26 06:48:08;;;;;;;;;;;;;;;24.31;60.58;101056.00;5047814;28;1304;-63
2021/06/26 06:50:53;;;;;;;;;;;;;;;24.31;60.46;101056.84;5045836;28;1004;-63
2021/06/26 06:53:38;;;;;;;;;;;;;;;24.32;60.42;101061.19;5045311;28;1902;-63
2021/06/26 06:56:23;;;;;;;;;;;;;;;24.34;60.44;101058.41;5047434;28;1322;-63
2021/06/26 06:59:09;;;;;;;;;;;;;;;24.36;60.29;101059.13;5047854;28;1043;-61
2021/06/26 07:01:55;;;;;;;;;;;;;;;24.35;60.67;101055.63;5045981;28;1440;-64
2021/06/26 07:04:40;;;;;;;;;;;;;;;24.38;60.37;101059.88;5046450;28;1093;-64
2021/06/26 07:07:26;;;;;;;;;;;;;;;24.38;60.36;101052.72;5047389;28;1330;-62
2021/06/26 07:10:11;;;;;;;;;;;;;;;24.40;60.25;101042.84;5045350;28;1079;-63
2021/06/26 07:12:56;;;;;;;;;;;;;;;24.41;60.19;101046.31;5045190;28;1404;-63
2021/06/26 07:15:42;;;;;;;;;;;;;;;24.41;60.30;101041.84;5046301;28;1906;-62
2021/06/26 07:18:27;;;;;;;;;;;;;;;24.43;59.95;101047.94;5046894;28;1437;-63
2021/06/26 07:21:12;;;;;;;;;;;;;;;24.44;60.06;101040.75;5045467;28;1071;-62
2021/06/26 07:23:57;;;;;;;;;;;;;;;24.44;59.76;101046.94;5046051;28;1099;-61
2021/06/26 07:26:43;;;;;;;;;;;;;;;24.51;59.77;101041.16;5046873;28;1319;-59
2021/06/26 07:29:28;;;;;;;;;;;;;;;24.44;58.64;101038.94;5047319;28;1059;-62
2021/06/26 07:32:13;;;;;;;;;;;;;;;24.51;58.42;101046.47;5045147;28;1322;-62
2021/06/26 07:34:58;;;;;;;;;;;;;;;24.54;58.11;101043.56;5045508;28;1899;-62
2021/06/26 07:37:44;;;;;;;;;;;;;;;24.55;57.19;101045.28;5046085;28;1396;-62
2021/06/26 07:40:30;;;;;;;;;;;;;;;24.43;56.77;101045.25;5046858;28;1095;-63
2021/06/26 07:43:15;;;;;;;;;;;;;;;24.52;56.82;101043.72;5045123;28;1398;-62
2021/06/26 07:46:01;;;;;;;;;;;;;;;24.52;56.16;101046.38;5045417;28;1000;-66
2021/06/26 07:48:47;;;;;;;;;;;;;;;24.52;55.99;101050.84;5046635;28;1088;-64
2021/06/26 07:51:32;;;;;;;;;;;;;;;24.45;56.30;101039.81;5044831;28;1304;-63
2021/06/26 07:54:18;;;;;;;;;;;;;;;24.51;55.78;101043.81;5045494;28;1965;-62
2021/06/26 07:57:03;;;;;;;;;;;;;;;24.53;55.60;101036.56;5045790;28;1448;-65
2021/06/26 07:59:49;;;;;;;;;;;;;;;24.50;54.88;101042.13;5046439;28;1201;-64
2021/06/26 08:02:34;;;;;;;;;;;;;;;24.56;54.46;101034.53;5044761;28;1323;-64
2021/06/26 08:05:20;;;;;;;;;;;;;;;24.53;54.05;101028.59;5044917;28;1059;-63
2021/06/26 08:08:10;;;;;;;;;;;;;;;24.55;53.71;101016.84;5046383;28;1307;-61
2021/06/26 08:10:55;;;;;;;;;;;;;;;24.58;53.82;101019.25;5045758;28;1253;-61
2021/06/26 08:13:40;;;;;;;;;;;;;;;24.59;53.81;101010.31;5044256;28;2040;-60
2021/06/26 08:16:26;;;;;;;;;;;;;;;24.57;53.35;101009.56;5042705;28;1491;-59
2021/06/26 08:19:12;;;;;;;;;;;;;;;24.56;53.22;101013.22;5027415;28;710;-61
2021/06/26 08:21:58;;;;;;;;;;;;;;;24.60;53.66;101008.47;5028090;28;1278;-61
2021/06/26 08:24:44;;;;;;;;;;;;;;;24.61;53.77;101011.03;5028060;28;706;-61
2021/06/26 08:27:29;;;;;;;;;;;;;;;24.64;53.61;101001.97;5030771;28;1469;-60
2021/06/26 08:30:14;;;;;;;;;;;;;;;24.64;53.62;100999.28;5046394;28;693;-61
2021/06/26 08:32:59;;;;;;;;;;;;;;;24.68;53.97;100998.09;5047938;28;1339;-63
2021/06/26 08:35:45;;;;;;;;;;;;;;;24.72;54.25;100996.88;5047558;28;1906;-63
2021/06/26 08:38:30;;;;;;;;;;;;;;;24.78;54.19;100991.91;5048604;28;1279;-64
2021/06/26 08:41:18;;;;;;;;;;;;;;;24.81;54.27;100997.03;5028524;28;1256;-67
2021/06/26 08:44:05;;;;;;;;;;;;;;;24.81;54.30;100988.19;5026282;28;1535;-65
2021/06/26 08:46:50;;;;;;;;;;;;;;;24.88;53.87;100994.75;5047005;28;1268;-64
2021/06/26 08:49:36;;;;;;;;;;;;;;;24.84;53.96;100988.81;5049806;28;613;-64
2021/06/26 08:52:21;;;;;;;;;;;;;;;24.84;53.78;100987.94;5048704;28;1300;-64
2021/06/26 08:55:07;;;;;;;;;;;;;;;24.80;53.87;100984.66;5049659;28;1965;-63
2021/06/26 08:57:53;;;;;;;;;;;;;;;24.81;54.18;100985.53;5047974;28;1585;-62
2021/06/26 09:00:38;;;;;;;;;;;;;;;24.86;54.10;100994.03;5037637;28;688;-62
2021/06/26 09:03:24;;;;;;;;;;;;;;;24.80;54.48;100981.16;5046836;28;1594;-62
2021/06/26 09:06:09;;;;;;;;;;;;;;;24.78;55.33;100977.75;5035370;28;1495;-62
2021/06/26 09:08:54;;;;;;;;;;;;;;;24.79;56.34;100966.97;5041337;28;1333;-63
2021/06/26 09:11:39;;;;;;;;;;;;;;;24.84;56.59;100974.63;5057200;28;1390;-63
2021/06/26 09:14:25;;;;;;;;;;;;;;;24.87;57.45;100977.03;5030371;28;1910;-65
2021/06/26 09:17:10;;;;;;;;;;;;;;;24.88;58.00;100976.94;5030187;28;1535;-65
2021/06/26 09:19:58;;;;;;;;;;;;;;;24.92;57.74;100980.22;5030932;28;589;-65
2021/06/26 09:22:45;;;;;;;;;;;;;;;24.92;57.77;100981.06;5030739;28;1257;-65
2021/06/26 09:25:30;;;;;;;;;;;;;;;24.92;57.27;100980.22;5030929;28;672;-65
2021/06/26 09:28:24;;;;;;;;;;;;;;;24.94;57.93;100983.59;5033020;28;1480;-66
2021/06/26 09:31:16;;;;;;;;;;;;;;;24.94;58.26;100980.94;5041423;28;586;-64
2021/06/26 09:34:04;;;;;;;;;;;;;;;24.94;58.28;100983.59;5049259;28;1965;-64
2021/06/26 09:37:02;;;;;;;;;;;;;;;24.95;57.58;100985.31;5049257;28;1349;-66
2021/06/26 09:39:48;;;;;;;;;;;;;;;24.97;57.92;100988.69;5049301;28;711;-66
2021/06/26 09:42:37;;;;;;;;;;;;;;;24.98;57.89;100991.25;5045930;28;1570;-65
2021/06/26 09:45:23;;;;;;;;;;;;;;;24.89;57.57;100961.81;5039401;28;687;-64
2021/06/26 09:48:08;;;;;;;;;;;;;;;25.00;57.74;100985.78;5030423;28;1285;-65
2021/06/26 09:50:53;;;;;;;;;;;;;;;25.00;57.82;100980.44;5030292;28;679;-67
2021/06/26 09:53:48;;;;;;;;;;;;;;;25.01;57.69;100982.16;5030555;28;1284;-67
2021/06/26 09:56:41;;;;;;;;;;;;;;;25.02;57.81;100975.00;5029505;28;1232;-65
2021/06/26 09:59:32;;;;;;;;;;;;;;;25.03;58.56;100969.53;5030123;28;691;-64
2021/06/26 10:02:21;;;;;;;;;;;;;;;25.03;58.17;100974.88;5030107;28;1272;-63
2021/06/26 10:05:07;;;;;;;;;;;;;;;25.03;57.51;100980.19;5029236;28;683;-64
2021/06/26 10:07:53;;;;;;;;;;;;;;;25.05;57.80;100983.59;5028069;28;1323;-64
2021/06/26 10:10:38;;;;;;;;;;;;;;;25.04;57.99;100992.56;5029177;28;640;-65
2021/06/26 10:13:24;;;;;;;;;;;;;;;25.04;58.33;100981.91;5027510;28;1583;-66
2021/06/26 10:16:10;;;;;;;;;;;;;;;25.05;57.33;100982.75;5040864;28;1910;-66
2021/06/26 10:18:57;;;;;;;;;;;;;;;25.07;58.77;100986.13;5029154;28;711;-66
2021/06/26 10:21:44;;;;;;;;;;;;;;;25.06;58.32;100981.78;5028955;28;1276;-64
2021/06/26 10:24:29;;;;;;;;;;;;;;;25.07;58.30;100980.81;5029301;28;668;-65
2021/06/26 10:27:19;;;;;;;;;;;;;;;25.08;57.87;100980.66;5028643;28;1394;-65
2021/06/26 10:30:10;;;;;;;;;;;;;;;25.09;58.09;100984.19;5028737;28;632;-63
2021/06/26 10:32:57;;;;;;;;;;;;;;;25.10;58.12;100973.41;5028890;28;1421;-66
2021/06/26 10:35:52;;;;;;;;;;;;;;;25.10;58.62;100970.75;5028464;28;1899;-66
2021/06/26 10:38:44;;;;;;;;;;;;;;;25.11;58.08;100972.44;5047579;28;1279;-65
2021/06/26 10:41:30;;;;;;;;;;;;;;;25.13;57.78;100981.19;5046960;28;1371;-65
2021/06/26 10:44:15;;;;;;;;;;;;;;;25.13;57.88;100975.84;5047135;28;1106;-68
2021/06/26 10:47:00;;;;;;;;;;;;;;;25.13;58.64;100981.19;5045755;28;1309;-65
2021/06/26 10:49:45;;;;;;;;;;;;;;;25.15;58.82;100981.03;5046156;28;1123;-66
2021/06/26 10:52:31;;;;;;;;;;;;;;;25.15;58.15;100981.88;5044529;28;1248;-67
2021/06/26 10:55:33;;;;;;;;;;;;;;;25.16;58.52;100974.75;5044998;28;2336;-65
2021/06/26 10:58:26;;;;;;;;;;;;;;;25.16;58.14;100978.25;5045363;28;1347;-65
2021/06/26 11:01:11;;;;;;;;;;;;;;;25.18;58.09;100973.66;5047621;28;1063;-64
2021/06/26 11:04:08;;;;;;;;;;;;;;;25.19;58.49;100972.69;5044963;28;1059;-65
2021/06/26 11:07:07;;;;;;;;;;;;;;;25.20;59.10;100961.03;5042305;28;1315;-68
2021/06/26 11:09:52;;;;;;;;;;;;;;;25.26;59.40;100960.53;5044489;28;1047;-66
2021/06/26 11:12:39;;;;;;;;;;;;;;;25.31;58.71;100958.34;5046290;28;1336;-62
2021/06/26 11:15:27;;;;;;;;;;;;;;;25.32;59.02;100953.88;5047561;28;1898;-65
2021/06/26 11:18:21;;;;;;;;;;;;;;;25.31;58.86;100946.84;5043054;28;1469;-64
2021/06/26 11:21:07;;;;;;;;;;;;;;;25.31;58.78;100937.03;5044973;28;1224;-64
2021/06/26 11:23:53;;;;;;;;;;;;;;;25.31;58.32;100944.19;5046636;28;1070;-64
2021/06/26 11:27:04;;;;;;;;;;;;;;;25.33;59.31;100939.56;5045156;28;1299;-64
2021/06/26 11:29:50;;;;;;;;;;;;;;;25.34;58.93;100935.94;5047384;28;1067;-63
2021/06/26 11:32:36;;;;;;;;;;;;;;;25.35;58.82;100935.78;5046806;28;1398;-62
2021/06/26 11:35:21;;;;;;;;;;;;;;;25.36;59.29;100933.97;5045359;28;1895;-63
2021/06/26 11:38:17;;;;;;;;;;;;;;;25.37;58.75;100931.19;5045549;28;1291;-64
2021/06/26 11:41:06;;;;;;;;;;;;;;;25.40;58.89;100936.28;5046048;28;1130;-64
2021/06/26 11:43:51;;;;;;;;;;;;;;;25.42;58.85;100928.13;5045407;28;1160;-65
2021/06/26 11:46:36;;;;;;;;;;;;;;;25.41;58.83;100924.63;5044582;28;1397;-62
2021/06/26 11:49:30;;;;;;;;;;;;;;;25.42;59.10;100933.47;5046553;28;865;-66
2021/06/26 11:52:16;;;;;;;;;;;;;;;25.45;59.05;100914.56;5046134;28;1306;-65
2021/06/26 11:55:02;;;;;;;;;;;;;;;25.44;59.38;100915.53;5045792;28;1906;-65
2021/06/26 11:57:52;;;;;;;;;;;;;;;25.44;58.74;100921.69;5046649;28;1319;-63
2021/06/26 12:00:38;;;;;;;;;;;;;;;25.47;60.23;100913.44;5044936;28;1048;-65
2021/06/26 12:03:24;;;;;;;;;;;;;;;25.46;59.98;100918.91;5045655;28;1338;-60
2021/06/26 12:06:10;;;;;;;;;;;;;;;25.46;59.14;100913.59;5046278;28;1067;-63
2021/06/26 12:08:56;;;;;;;;;;;;;;;25.46;59.69;100914.44;5046337;28;1019;-62
2021/06/26 12:11:42;;;;;;;;;;;;;;;25.47;59.14;100908.13;5044926;28;1409;-63
2021/06/26 12:14:29;;;;;;;;;;;;;;;25.47;58.37;100917.97;5046194;28;1056;-63
2021/06/26 12:17:16;;;;;;;;;;;;;;;25.49;59.07;100910.69;5043648;28;1469;-63
2021/06/26 12:20:06;;;;;;;;;;;;;;;25.52;58.89;100915.78;5071544;28;1020;-63
2021/06/26 12:23:01;;;;;;;;;;;;;;;25.52;59.00;100903.28;5047787;28;1335;-70
2021/06/26 12:25:46;;;;;;;;;;;;;;;25.58;58.26;100906.41;5048301;28;684;-68
2021/06/26 12:28:39;;;;;;;;;;;;;;;25.59;58.21;100910.78;5048832;28;1306;-67
2021/06/26 12:31:28;;;;;;;;;;;;;;;25.62;56.90;100903.38;5044887;28;1499;-76
2021/06/26 12:34:13;;;;;;;;;;;;;;;25.62;54.98;100892.72;5047693;28;977;-72
2021/06/26 12:36:59;;;;;;;;;;;;;;;25.67;54.29;100878.97;5048411;28;1960;-69
2021/06/26 12:39:45;;;;;;;;;;;;;;;25.69;52.75;100887.69;5029954;28;1373;-66
2021/06/26 12:42:30;;;;;;;;;;;;;;;25.69;51.27;100877.00;5030112;28;1304;-68
2021/06/26 12:45:20;;;;;;;;;;;;;;;25.83;51.64;100874.03;5046691;28;714;-63
2021/06/26 12:48:13;;;;;;;;;;;;;;;25.78;51.79;100873.56;5047628;28;1288;-65
2021/06/26 12:51:16;;;;;;;;;;;;;;;25.78;53.20;100879.75;5047634;28;659;-66
2021/06/26 12:54:08;;;;;;;;;;;;;;;25.81;51.89;100870.63;5046345;28;1012;-69
2021/06/26 12:56:54;;;;;;;;;;;;;;;25.83;51.68;100877.56;5047933;28;1902;-68
2021/06/26 12:59:39;;;;;;;;;;;;;;;25.81;52.93;100870.63;5047118;28;663;-65
2021/06/26 13:02:34;;;;;;;;;;;;;;;25.77;53.48;100870.09;5045027;28;1444;-66
2021/06/26 13:05:24;;;;;;;;;;;;;;;25.77;53.23;100871.91;5044263;28;1044;-69
2021/06/26 13:08:09;;;;;;;;;;;;;;;25.77;52.41;100874.56;5040234;28;1398;-70
2021/06/26 13:10:54;;;;;;;;;;;;;;;25.71;51.97;100872.41;5041025;28;1205;-72
2021/06/26 13:13:40;;;;;;;;;;;;;;;25.71;51.85;100870.59;5042875;28;1324;-71
2021/06/26 13:16:25;;;;;;;;;;;;;;;25.73;51.83;100865.13;5046614;28;1963;-74
2021/06/26 13:19:12;;;;;;;;;;;;;;;25.72;51.29;100866.94;5045344;28;1254;-72
2021/06/26 13:21:57;;;;;;;;;;;;;;;25.71;52.04;100853.75;5044879;28;1398;-72
2021/06/26 13:24:42;;;;;;;;;;;;;;;25.72;52.34;100860.75;5044348;28;1242;-71
2021/06/26 13:27:28;;;;;;;;;;;;;;;25.73;51.84;100870.44;5045379;28;1252;-72
2021/06/26 13:30:15;;;;;;;;;;;;;;;25.72;51.72;100872.28;5038763;28;1374;-71
2021/06/26 13:33:00;;;;;;;;;;;;;;;25.74;51.29;100869.50;5045864;28;1318;-72
2021/06/26 13:35:46;;;;;;;;;;;;;;;25.76;50.92;100865.72;5049715;28;2388;-71
2021/06/26 13:38:31;;;;;;;;;;;;;;;25.76;50.70;100857.72;5047403;28;1428;-71
2021/06/26 13:41:17;;;;;;;;;;;;;;;25.75;50.95;100855.16;5047313;28;1333;-71
2021/06/26 13:44:03;;;;;;;;;;;;;;;25.74;50.66;100859.66;5048544;28;1230;-71
2021/06/26 13:46:48;;;;;;;;;;;;;;;25.75;50.87;100860.50;5040269;28;1380;-69
2021/06/26 13:49:34;;;;;;;;;;;;;;;25.73;50.49;100862.44;5049680;28;1114;-68
2021/06/26 13:52:21;;;;;;;;;;;;;;;25.75;50.51;100853.34;5047805;28;1261;-70
2021/06/26 13:55:06;;;;;;;;;;;;;;;25.78;50.15;100860.22;5042898;28;1955;-72
2021/06/26 13:57:51;;;;;;;;;;;;;;;25.78;49.80;100868.22;5061804;28;1414;-74
2021/06/26 14:00:37;;;;;;;;;;;;;;;25.81;49.87;100865.31;5046793;28;1173;-74
2021/06/26 14:03:23;;;;;;;;;;;;;;;25.77;50.12;100853.22;5047436;28;1315;-75
2021/06/26 14:06:09;;;;;;;;;;;;;;;25.78;50.09;100870.91;5045017;28;1234;-73
2021/06/26 14:08:55;;;;;;;;;;;;;;;25.80;50.24;100855.63;5046142;28;1246;-76
2021/06/26 14:11:40;;;;;;;;;;;;;;;25.79;49.90;100856.59;5044352;28;1444;-73
2021/06/26 14:14:26;;;;;;;;;;;;;;;25.81;49.95;100850.16;5048727;28;1115;-71
2021/06/26 14:17:11;;;;;;;;;;;;;;;25.82;50.51;100851.84;5048759;28;1894;-69
2021/06/26 14:19:56;;;;;;;;;;;;;;;25.81;50.13;100846.63;5046680;28;1056;-69
2021/06/26 14:22:42;;;;;;;;;;;;;;;25.80;50.04;100850.28;5046144;28;1402;-69
2021/06/26 14:25:27;;;;;;;;;;;;;;;25.82;49.46;100829.66;5047145;28;1167;-68
2021/06/26 14:28:13;;;;;;;;;;;;;;;25.83;49.06;100831.34;5048188;28;1347;-68
2021/06/26 14:30:59;;;;;;;;;;;;;;;25.78;49.83;100828.22;5046727;28;1102;-69